sensor_id;sensor_type;location;lat;lon;timestamp;pressure;altitude;pressure_sealevel;temperature;humidity
54876;BME280;40764;48.472;8.166;2023-10-31T00:04:38;96801.41;;;12.71;100.00
54876;BME280;40764;48.472;8.166;2023-10-31T00:10:38;96804.03;;;12.56;100.00
54876;BME280;40764;48.472;8.166;2023-10-31T00:16:38;96801.75;;;12.46;100.00
54876;BME280;40764;48.472;8.166;2023-10-31T00:22:39;96811.81;;;12.54;100.00
54876;BME280;40764;48.472;8.166;2023-10-31T00:28:39;96803.69;;;12.45;100.00
54876;BME280;40764;48.472;8.166;2023-10-31T00:34:39;96799.03;;;12.46;100.00
54876;BME280;40764;48.472;8.166;2023-10-31T00:40:39;96786.88;;;12.34;100.00
54876;BME280;40764;48.472;8.166;2023-10-31T00:46:40;96793.28;;;12.38;100.00
54876;BME280;40764;48.472;8.166;2023-10-31T00:52:40;96790.53;;;12.38;100.00
54876;BME280;40764;48.472;8.166;2023-10-31T00:58:40;96786.47;;;12.45;100.00
54876;BME280;40764;48.472;8.166;2023-10-31T01:04:41;96797.41;;;12.45;100.00
54876;BME280;40764;48.472;8.166;2023-10-31T01:10:41;96804.03;;;12.44;100.00
54876;BME280;40764;48.472;8.166;2023-10-31T01:16:41;96805.88;;;12.52;100.00
54876;BME280;40764;48.472;8.166;2023-10-31T01:22:42;96804.69;;;12.40;100.00
54876;BME280;40764;48.472;8.166;2023-10-31T01:28:42;96806.13;;;12.14;100.00
54876;BME280;40764;48.472;8.166;2023-10-31T01:34:42;96814.03;;;11.61;100.00
54876;BME280;40764;48.472;8.166;2023-10-31T01:40:42;96838.00;;;11.64;100.00
54876;BME280;40764;48.472;8.166;2023-10-31T01:46:43;96844.41;;;11.68;100.00
54876;BME280;40764;48.472;8.166;2023-10-31T01:52:43;96849.00;;;11.76;100.00
54876;BME280;40764;48.472;8.166;2023-10-31T01:58:44;96846.81;;;11.70;100.00
54876;BME280;40764;48.472;8.166;2023-10-31T02:04:46;96847.94;;;11.69;100.00
54876;BME280;40764;48.472;8.166;2023-10-31T02:10:47;96858.97;;;11.81;100.00
54876;BME280;40764;48.472;8.166;2023-10-31T02:16:47;96867.91;;;11.69;100.00
54876;BME280;40764;48.472;8.166;2023-10-31T02:22:47;96886.59;;;11.67;100.00
54876;BME280;40764;48.472;8.166;2023-10-31T02:28:48;96896.06;;;11.49;100.00
54876;BME280;40764;48.472;8.166;2023-10-31T02:34:49;96890.84;;;11.56;100.00
54876;BME280;40764;48.472;8.166;2023-10-31T02:40:49;96894.72;;;11.55;100.00
54876;BME280;40764;48.472;8.166;2023-10-31T02:46:49;96913.38;;;11.62;99.15
54876;BME280;40764;48.472;8.166;2023-10-31T02:52:50;96912.41;;;11.37;100.00
54876;BME280;40764;48.472;8.166;2023-10-31T02:58:50;96920.09;;;11.64;99.65
54876;BME280;40764;48.472;8.166;2023-10-31T03:04:51;96910.84;;;11.57;100.00
54876;BME280;40764;48.472;8.166;2023-10-31T03:10:51;96921.50;;;11.70;99.48
54876;BME280;40764;48.472;8.166;2023-10-31T03:16:52;96929.38;;;11.72;99.78
54876;BME280;40764;48.472;8.166;2023-10-31T03:22:52;96946.91;;;11.50;99.70
54876;BME280;40764;48.472;8.166;2023-10-31T03:28:52;96950.13;;;11.52;99.58
54876;BME280;40764;48.472;8.166;2023-10-31T03:34:57;96969.47;;;11.47;98.73
54876;BME280;40764;48.472;8.166;2023-10-31T03:40:57;96967.97;;;11.58;97.23
54876;BME280;40764;48.472;8.166;2023-10-31T03:46:57;96978.34;;;11.44;97.60
54876;BME280;40764;48.472;8.166;2023-10-31T03:52:58;96982.00;;;11.48;96.95
54876;BME280;40764;48.472;8.166;2023-10-31T03:58:58;96989.63;;;11.42;97.31
54876;BME280;40764;48.472;8.166;2023-10-31T04:04:58;96971.19;;;11.31;97.31
54876;BME280;40764;48.472;8.166;2023-10-31T04:10:58;96972.13;;;11.26;97.65
54876;BME280;40764;48.472;8.166;2023-10-31T04:16:59;96983.84;;;11.06;96.53
54876;BME280;40764;48.472;8.166;2023-10-31T04:22:59;96990.16;;;11.27;95.69
54876;BME280;40764;48.472;8.166;2023-10-31T04:28:59;96995.72;;;11.10;98.30
54876;BME280;40764;48.472;8.166;2023-10-31T04:35:00;96991.59;;;11.33;99.05
54876;BME280;40764;48.472;8.166;2023-10-31T04:41:00;96995.31;;;11.29;100.00
54876;BME280;40764;48.472;8.166;2023-10-31T04:47:00;96990.56;;;11.08;100.00
54876;BME280;40764;48.472;8.166;2023-10-31T04:53:01;96997.38;;;10.94;100.00
54876;BME280;40764;48.472;8.166;2023-10-31T04:59:01;97005.06;;;11.09;100.00
54876;BME280;40764;48.472;8.166;2023-10-31T05:05:02;97008.31;;;10.94;100.00
54876;BME280;40764;48.472;8.166;2023-10-31T05:11:02;97015.59;;;11.28;100.00
54876;BME280;40764;48.472;8.166;2023-10-31T05:17:03;97022.78;;;11.03;100.00
54876;BME280;40764;48.472;8.166;2023-10-31T05:23:03;97032.41;;;11.09;100.00
54876;BME280;40764;48.472;8.166;2023-10-31T05:29:03;97028.38;;;10.98;100.00
54876;BME280;40764;48.472;8.166;2023-10-31T05:35:04;97039.34;;;10.89;100.00
54876;BME280;40764;48.472;8.166;2023-10-31T05:41:07;97040.47;;;11.05;100.00
54876;BME280;40764;48.472;8.166;2023-10-31T05:47:08;97057.66;;;11.06;100.00
54876;BME280;40764;48.472;8.166;2023-10-31T05:53:09;97068.16;;;10.86;100.00
54876;BME280;40764;48.472;8.166;2023-10-31T05:59:10;97067.81;;;10.88;100.00
54876;BME280;40764;48.472;8.166;2023-10-31T06:05:11;97068.44;;;10.94;100.00
54876;BME280;40764;48.472;8.166;2023-10-31T06:11:11;97065.56;;;10.90;100.00
54876;BME280;40764;48.472;8.166;2023-10-31T06:17:12;97069.41;;;10.98;100.00
54876;BME280;40764;48.472;8.166;2023-10-31T06:23:12;97076.00;;;10.97;100.00
54876;BME280;40764;48.472;8.166;2023-10-31T06:29:13;97071.06;;;10.55;100.00
54876;BME280;40764;48.472;8.166;2023-10-31T06:35:13;97085.22;;;10.23;100.00
54876;BME280;40764;48.472;8.166;2023-10-31T06:41:13;97098.03;;;10.14;100.00
54876;BME280;40764;48.472;8.166;2023-10-31T06:47:14;97098.06;;;10.22;100.00
54876;BME280;40764;48.472;8.166;2023-10-31T06:53:14;97106.59;;;10.38;100.00
54876;BME280;40764;48.472;8.166;2023-10-31T06:59:14;97110.63;;;10.49;100.00
54876;BME280;40764;48.472;8.166;2023-10-31T07:05:15;97110.94;;;10.48;100.00
54876;BME280;40764;48.472;8.166;2023-10-31T07:11:16;97105.97;;;10.50;100.00
54876;BME280;40764;48.472;8.166;2023-10-31T07:17:16;97110.16;;;10.73;100.00
54876;BME280;40764;48.472;8.166;2023-10-31T07:23:16;97111.91;;;10.78;100.00
54876;BME280;40764;48.472;8.166;2023-10-31T07:29:17;97120.75;;;11.01;100.00
54876;BME280;40764;48.472;8.166;2023-10-31T07:35:17;97129.72;;;11.10;100.00
54876;BME280;40764;48.472;8.166;2023-10-31T07:41:19;97133.88;;;11.16;100.00
54876;BME280;40764;48.472;8.166;2023-10-31T07:47:20;97139.03;;;11.17;100.00
54876;BME280;40764;48.472;8.166;2023-10-31T07:53:20;97147.47;;;11.59;100.00
54876;BME280;40764;48.472;8.166;2023-10-31T07:59:21;97151.81;;;11.60;100.00
54876;BME280;40764;48.472;8.166;2023-10-31T08:05:21;97156.94;;;11.70;100.00
54876;BME280;40764;48.472;8.166;2023-10-31T08:11:21;97165.13;;;11.88;100.00
54876;BME280;40764;48.472;8.166;2023-10-31T08:17:21;97168.16;;;11.77;100.00
54876;BME280;40764;48.472;8.166;2023-10-31T08:23:22;97174.63;;;11.73;100.00
54876;BME280;40764;48.472;8.166;2023-10-31T08:29:22;97179.03;;;11.57;100.00
54876;BME280;40764;48.472;8.166;2023-10-31T08:35:22;97190.91;;;11.78;100.00
54876;BME280;40764;48.472;8.166;2023-10-31T08:41:23;97193.47;;;11.74;100.00
54876;BME280;40764;48.472;8.166;2023-10-31T08:47:23;97196.19;;;11.92;100.00
54876;BME280;40764;48.472;8.166;2023-10-31T08:53:23;97185.19;;;12.00;100.00
54876;BME280;40764;48.472;8.166;2023-10-31T08:59:24;97188.69;;;12.39;100.00
54876;BME280;40764;48.472;8.166;2023-10-31T09:05:24;97207.03;;;12.47;100.00
54876;BME280;40764;48.472;8.166;2023-10-31T09:11:25;97200.09;;;12.50;100.00
54876;BME280;40764;48.472;8.166;2023-10-31T09:17:25;97202.78;;;12.58;100.00
54876;BME280;40764;48.472;8.166;2023-10-31T09:23:25;97198.81;;;12.68;99.73
54876;BME280;40764;48.472;8.166;2023-10-31T09:29:25;97211.41;;;12.69;99.16
54876;BME280;40764;48.472;8.166;2023-10-31T09:35:26;97210.72;;;13.01;96.41
54876;BME280;40764;48.472;8.166;2023-10-31T09:41:26;97203.69;;;13.33;94.92
54876;BME280;40764;48.472;8.166;2023-10-31T09:47:29;97208.00;;;13.14;95.41
54876;BME280;40764;48.472;8.166;2023-10-31T09:53:31;97211.00;;;13.00;94.79
54876;BME280;40764;48.472;8.166;2023-10-31T09:59:33;97217.31;;;13.00;95.09
54876;BME280;40764;48.472;8.166;2023-10-31T10:05:35;97217.34;;;13.21;95.36
54876;BME280;40764;48.472;8.166;2023-10-31T10:11:36;97203.94;;;13.20;93.64
54876;BME280;40764;48.472;8.166;2023-10-31T10:17:36;97208.44;;;13.03;95.72
54876;BME280;40764;48.472;8.166;2023-10-31T10:23:36;97208.59;;;12.98;95.50
54876;BME280;40764;48.472;8.166;2023-10-31T10:29:38;97215.06;;;13.02;94.27
54876;BME280;40764;48.472;8.166;2023-10-31T10:35:38;97216.50;;;13.00;94.79
54876;BME280;40764;48.472;8.166;2023-10-31T10:41:40;97222.28;;;13.07;96.96
54876;BME280;40764;48.472;8.166;2023-10-31T10:47:46;97217.69;;;13.20;93.85
54876;BME280;40764;48.472;8.166;2023-10-31T10:53:52;97215.38;;;13.43;94.34
54876;BME280;40764;48.472;8.166;2023-10-31T10:59:58;97217.81;;;13.56;94.99
54876;BME280;40764;48.472;8.166;2023-10-31T11:06:03;97223.47;;;13.60;94.73
54876;BME280;40764;48.472;8.166;2023-10-31T11:12:03;97206.81;;;13.89;93.30
54876;BME280;40764;48.472;8.166;2023-10-31T11:18:04;97211.53;;;14.01;91.20
54876;BME280;40764;48.472;8.166;2023-10-31T11:24:05;97218.16;;;13.88;89.70
54876;BME280;40764;48.472;8.166;2023-10-31T11:30:27;97224.88;;;13.78;89.38
54876;BME280;40764;48.472;8.166;2023-10-31T11:36:31;97227.66;;;13.90;90.10
54876;BME280;40764;48.472;8.166;2023-10-31T11:42:36;97234.81;;;13.71;89.91
54876;BME280;40764;48.472;8.166;2023-10-31T11:48:49;97231.34;;;13.61;93.04
54876;BME280;40764;48.472;8.166;2023-10-31T11:54:51;97227.28;;;13.47;91.49
54876;BME280;40764;48.472;8.166;2023-10-31T12:00:56;97248.69;;;13.53;91.96
54876;BME280;40764;48.472;8.166;2023-10-31T12:07:00;97252.13;;;13.50;94.61
54876;BME280;40764;48.472;8.166;2023-10-31T12:13:01;97251.53;;;13.03;100.00
54876;BME280;40764;48.472;8.166;2023-10-31T12:19:03;97260.56;;;13.45;100.00
54876;BME280;40764;48.472;8.166;2023-10-31T12:25:08;97261.09;;;13.92;100.00
54876;BME280;40764;48.472;8.166;2023-10-31T12:31:08;97256.09;;;14.19;100.00
54876;BME280;40764;48.472;8.166;2023-10-31T12:37:09;97253.31;;;14.07;99.12
54876;BME280;40764;48.472;8.166;2023-10-31T12:43:09;97256.56;;;14.21;100.00
54876;BME280;40764;48.472;8.166;2023-10-31T12:49:11;97243.53;;;14.67;97.07
54876;BME280;40764;48.472;8.166;2023-10-31T12:55:16;97240.41;;;14.32;93.78
54876;BME280;40764;48.472;8.166;2023-10-31T13:01:16;97258.00;;;14.51;92.81
54876;BME280;40764;48.472;8.166;2023-10-31T13:07:26;97261.66;;;14.55;95.40
54876;BME280;40764;48.472;8.166;2023-10-31T13:13:26;97267.44;;;14.42;95.26
54876;BME280;40764;48.472;8.166;2023-10-31T13:19:27;97270.03;;;14.47;95.37
54876;BME280;40764;48.472;8.166;2023-10-31T13:25:27;97277.28;;;14.18;95.42
54876;BME280;40764;48.472;8.166;2023-10-31T13:31:27;97281.88;;;13.81;98.19
54876;BME280;40764;48.472;8.166;2023-10-31T13:37:27;97272.25;;;13.87;93.73
54876;BME280;40764;48.472;8.166;2023-10-31T13:43:28;97280.31;;;13.92;90.98
54876;BME280;40764;48.472;8.166;2023-10-31T13:49:28;97286.97;;;13.91;93.39
54876;BME280;40764;48.472;8.166;2023-10-31T13:55:28;97298.44;;;13.73;92.33
54876;BME280;40764;48.472;8.166;2023-10-31T14:01:29;97312.84;;;13.70;94.43
54876;BME280;40764;48.472;8.166;2023-10-31T14:07:29;97315.59;;;13.49;96.66
54876;BME280;40764;48.472;8.166;2023-10-31T14:13:30;97324.72;;;13.61;96.46
54876;BME280;40764;48.472;8.166;2023-10-31T14:19:30;97330.38;;;13.56;96.44
54876;BME280;40764;48.472;8.166;2023-10-31T14:25:30;97351.97;;;13.46;99.78
54876;BME280;40764;48.472;8.166;2023-10-31T14:31:31;97357.84;;;13.36;99.35
54876;BME280;40764;48.472;8.166;2023-10-31T14:37:31;97365.78;;;13.28;99.44
54876;BME280;40764;48.472;8.166;2023-10-31T14:43:32;97367.09;;;13.52;97.62
54876;BME280;40764;48.472;8.166;2023-10-31T14:49:32;97375.97;;;13.28;100.00
54876;BME280;40764;48.472;8.166;2023-10-31T14:55:32;97377.00;;;13.15;100.00
54876;BME280;40764;48.472;8.166;2023-10-31T15:01:33;97382.94;;;13.17;100.00
54876;BME280;40764;48.472;8.166;2023-10-31T15:07:33;97384.19;;;13.28;100.00
54876;BME280;40764;48.472;8.166;2023-10-31T15:13:33;97388.59;;;13.50;100.00
54876;BME280;40764;48.472;8.166;2023-10-31T15:19:33;97396.72;;;13.67;100.00
54876;BME280;40764;48.472;8.166;2023-10-31T15:25:34;97411.69;;;13.19;100.00
54876;BME280;40764;48.472;8.166;2023-10-31T15:31:34;97407.50;;;12.84;100.00
54876;BME280;40764;48.472;8.166;2023-10-31T15:37:36;97411.66;;;12.90;100.00
54876;BME280;40764;48.472;8.166;2023-10-31T15:43:36;97418.81;;;12.74;100.00
54876;BME280;40764;48.472;8.166;2023-10-31T15:49:37;97433.97;;;12.80;100.00
54876;BME280;40764;48.472;8.166;2023-10-31T15:55:37;97446.72;;;12.67;100.00
54876;BME280;40764;48.472;8.166;2023-10-31T16:01:38;97455.28;;;12.65;100.00
54876;BME280;40764;48.472;8.166;2023-10-31T16:07:38;97469.19;;;12.43;100.00
54876;BME280;40764;48.472;8.166;2023-10-31T16:13:39;97472.59;;;12.49;100.00
54876;BME280;40764;48.472;8.166;2023-10-31T16:19:44;97470.19;;;12.47;100.00
54876;BME280;40764;48.472;8.166;2023-10-31T16:25:44;97496.13;;;12.50;100.00
54876;BME280;40764;48.472;8.166;2023-10-31T16:31:45;97505.81;;;12.47;100.00
54876;BME280;40764;48.472;8.166;2023-10-31T16:37:45;97515.78;;;12.34;100.00
54876;BME280;40764;48.472;8.166;2023-10-31T16:43:46;97522.91;;;12.44;100.00
54876;BME280;40764;48.472;8.166;2023-10-31T16:49:47;97533.34;;;12.42;100.00
54876;BME280;40764;48.472;8.166;2023-10-31T16:55:47;97539.34;;;12.44;100.00
54876;BME280;40764;48.472;8.166;2023-10-31T17:01:48;97558.34;;;12.40;100.00
54876;BME280;40764;48.472;8.166;2023-10-31T17:07:48;97552.53;;;12.42;100.00
54876;BME280;40764;48.472;8.166;2023-10-31T17:13:49;97568.84;;;12.38;100.00
54876;BME280;40764;48.472;8.166;2023-10-31T17:19:50;97581.72;;;12.29;100.00
54876;BME280;40764;48.472;8.166;2023-10-31T17:25:52;97592.84;;;12.33;100.00
54876;BME280;40764;48.472;8.166;2023-10-31T17:31:53;97608.16;;;12.43;100.00
54876;BME280;40764;48.472;8.166;2023-10-31T17:37:54;97612.38;;;12.40;100.00
54876;BME280;40764;48.472;8.166;2023-10-31T17:43:54;97627.34;;;12.34;100.00
54876;BME280;40764;48.472;8.166;2023-10-31T17:49:54;97638.34;;;12.51;100.00
54876;BME280;40764;48.472;8.166;2023-10-31T17:55:55;97641.69;;;12.22;100.00
54876;BME280;40764;48.472;8.166;2023-10-31T18:01:55;97639.59;;;12.19;100.00
54876;BME280;40764;48.472;8.166;2023-10-31T18:07:55;97655.25;;;12.36;100.00
54876;BME280;40764;48.472;8.166;2023-10-31T18:13:55;97657.66;;;12.29;100.00
54876;BME280;40764;48.472;8.166;2023-10-31T18:19:56;97664.56;;;12.18;100.00
54876;BME280;40764;48.472;8.166;2023-10-31T18:25:57;97675.41;;;12.31;100.00
54876;BME280;40764;48.472;8.166;2023-10-31T18:31:57;97686.09;;;12.02;100.00
54876;BME280;40764;48.472;8.166;2023-10-31T18:37:59;97701.91;;;12.05;100.00
54876;BME280;40764;48.472;8.166;2023-10-31T18:43:59;97705.34;;;11.79;100.00
54876;BME280;40764;48.472;8.166;2023-10-31T18:50:00;97709.47;;;11.99;100.00
54876;BME280;40764;48.472;8.166;2023-10-31T18:56:00;97723.44;;;11.89;100.00
54876;BME280;40764;48.472;8.166;2023-10-31T19:02:01;97711.69;;;11.89;100.00
54876;BME280;40764;48.472;8.166;2023-10-31T19:08:01;97719.41;;;11.87;100.00
54876;BME280;40764;48.472;8.166;2023-10-31T19:14:03;97714.34;;;11.80;100.00
54876;BME280;40764;48.472;8.166;2023-10-31T19:20:03;97713.94;;;11.64;100.00
54876;BME280;40764;48.472;8.166;2023-10-31T19:26:04;97714.25;;;11.63;100.00
54876;BME280;40764;48.472;8.166;2023-10-31T19:32:05;97719.34;;;11.56;100.00
54876;BME280;40764;48.472;8.166;2023-10-31T19:38:06;97735.34;;;11.62;100.00
54876;BME280;40764;48.472;8.166;2023-10-31T19:44:06;97733.03;;;11.56;100.00
54876;BME280;40764;48.472;8.166;2023-10-31T19:50:07;97738.47;;;11.47;100.00
54876;BME280;40764;48.472;8.166;2023-10-31T19:56:15;97736.16;;;11.63;100.00
54876;BME280;40764;48.472;8.166;2023-10-31T20:02:15;97750.38;;;11.73;100.00
54876;BME280;40764;48.472;8.166;2023-10-31T20:08:16;97744.91;;;11.73;100.00
54876;BME280;40764;48.472;8.166;2023-10-31T20:14:17;97763.41;;;11.90;100.00
54876;BME280;40764;48.472;8.166;2023-10-31T20:20:18;97755.50;;;11.89;100.00
54876;BME280;40764;48.472;8.166;2023-10-31T20:26:18;97746.47;;;11.88;100.00
54876;BME280;40764;48.472;8.166;2023-10-31T20:32:19;97740.31;;;11.83;100.00
54876;BME280;40764;48.472;8.166;2023-10-31T20:38:19;97740.06;;;11.93;100.00
54876;BME280;40764;48.472;8.166;2023-10-31T20:44:20;97735.72;;;12.00;100.00
54876;BME280;40764;48.472;8.166;2023-10-31T20:50:20;97725.69;;;11.87;100.00
54876;BME280;40764;48.472;8.166;2023-10-31T20:56:23;97725.22;;;11.94;100.00
54876;BME280;40764;48.472;8.166;2023-10-31T21:02:24;97726.53;;;11.96;100.00
54876;BME280;40764;48.472;8.166;2023-10-31T21:08:25;97712.50;;;11.89;100.00
54876;BME280;40764;48.472;8.166;2023-10-31T21:14:26;97699.44;;;11.64;100.00
54876;BME280;40764;48.472;8.166;2023-10-31T21:20:26;97705.72;;;11.87;100.00
54876;BME280;40764;48.472;8.166;2023-10-31T21:26:27;97705.66;;;11.78;100.00
54876;BME280;40764;48.472;8.166;2023-10-31T21:32:27;97704.09;;;11.86;100.00
54876;BME280;40764;48.472;8.166;2023-10-31T21:38:27;97690.44;;;11.94;100.00
54876;BME280;40764;48.472;8.166;2023-10-31T21:44:28;97703.31;;;11.94;100.00
54876;BME280;40764;48.472;8.166;2023-10-31T21:50:28;97696.22;;;11.93;100.00
54876;BME280;40764;48.472;8.166;2023-10-31T21:56:28;97684.78;;;11.91;100.00
54876;BME280;40764;48.472;8.166;2023-10-31T22:02:29;97682.22;;;11.94;100.00
54876;BME280;40764;48.472;8.166;2023-10-31T22:08:29;97687.75;;;12.12;100.00
54876;BME280;40764;48.472;8.166;2023-10-31T22:14:29;97694.50;;;12.14;100.00
54876;BME280;40764;48.472;8.166;2023-10-31T22:20:30;97684.50;;;12.09;100.00
54876;BME280;40764;48.472;8.166;2023-10-31T22:26:30;97703.69;;;12.09;100.00
54876;BME280;40764;48.472;8.166;2023-10-31T22:32:30;97688.38;;;12.08;100.00
54876;BME280;40764;48.472;8.166;2023-10-31T22:38:31;97698.38;;;12.13;100.00
54876;BME280;40764;48.472;8.166;2023-10-31T22:44:31;97690.44;;;11.94;100.00
54876;BME280;40764;48.472;8.166;2023-10-31T22:50:31;97685.75;;;11.86;100.00
54876;BME280;40764;48.472;8.166;2023-10-31T22:56:32;97692.44;;;11.80;100.00
54876;BME280;40764;48.472;8.166;2023-10-31T23:02:32;97683.75;;;11.78;100.00
54876;BME280;40764;48.472;8.166;2023-10-31T23:08:32;97677.53;;;11.86;100.00
54876;BME280;40764;48.472;8.166;2023-10-31T23:14:33;97694.88;;;11.82;100.00
54876;BME280;40764;48.472;8.166;2023-10-31T23:20:33;97680.41;;;11.59;100.00
54876;BME280;40764;48.472;8.166;2023-10-31T23:26:33;97663.56;;;11.74;100.00
54876;BME280;40764;48.472;8.166;2023-10-31T23:32:34;97662.41;;;11.66;100.00
54876;BME280;40764;48.472;8.166;2023-10-31T23:38:34;97668.28;;;11.51;100.00
54876;BME280;40764;48.472;8.166;2023-10-31T23:44:35;97664.84;;;11.68;100.00
54876;BME280;40764;48.472;8.166;2023-10-31T23:50:35;97670.78;;;11.61;100.00
54876;BME280;40764;48.472;8.166;2023-10-31T23:56:35;97674.00;;;11.63;100.00
